CYBK

Baker Lake Airport

Baker Lake, Canada
METAR CYBK 100600Z 14015KT 15SM IC DRSN OVC015 M16/M18 A2992 RMK SC8 SLP137
Observed Flight Rules
Dec-10 @ 06:00 UTC (28 minutes ago) Marginal Visual Flight Rules
Wind Visibility Clouds Conditions
140° at 15 knots 15 miles
  • Overcast at 1,500' AGL
  • Ice crystals
  • Low drifting
  • Snow
Temperatures Readings
Current -16°C / 3°F
Dewpoint -18°C / -0°F
Humidity 85%
Altimeter 29.92" Hg
Pressure 1013.7 hPa
Elevation 18
METAR CYBK 100600Z 14015KT 15SM IC DRSN OVC015 M16/M18 A2992 RMK SC8 SLP137
Observed Flight Rules
Dec-10 @ 06:00 UTC
(28 minutes ago)
MVFR
Wind Visibility
140° at 15 knots 15 miles
Clouds
  • Overcast at 1,500' AGL
Conditions
  • Ice crystals
  • Low drifting
  • Snow
Temperature Dewpoint
-16°C / 3°F -18°C / -0°F
Humidity Altimeter Pressure
85% 29.92" Hg 1013.7 hPa